createdAt,value
2022-11-13T00:01:15.569Z,95270.03
2022-11-13T00:03:42.396Z,95261.53
2022-11-13T00:06:10.772Z,95262.22
2022-11-13T00:08:37.476Z,95260.34
2022-11-13T00:11:06.457Z,95248.63
2022-11-13T00:13:34.147Z,95255.22
2022-11-13T00:16:05.826Z,95254.28
2022-11-13T00:18:35.197Z,95248.91
2022-11-13T00:21:11.098Z,95251.19
2022-11-13T00:23:38.002Z,95237.97
2022-11-13T00:26:10.284Z,95242.31
2022-11-13T00:28:37.166Z,95241.75
2022-11-13T00:31:04.825Z,95242.41
2022-11-13T00:34:01.848Z,95238.50
2022-11-13T00:36:26.026Z,95241.88
2022-11-13T00:38:53.667Z,95233.13
2022-11-13T00:41:20.426Z,95232.97
2022-11-13T00:43:47.126Z,95239.84
2022-11-13T00:46:14.029Z,95238.38
2022-11-13T00:48:40.651Z,95239.81
2022-11-13T00:51:07.671Z,95227.06
2022-11-13T00:53:34.347Z,95236.84
2022-11-13T00:56:01.156Z,95237.44
2022-11-13T00:58:28.256Z,95233.34
2022-11-13T01:00:55.505Z,95232.53
2022-11-13T01:03:22.371Z,95223.09
2022-11-13T01:05:49.076Z,95221.78
2022-11-13T01:08:16.520Z,95208.63
2022-11-13T01:10:53.195Z,95218.84
2022-11-13T01:13:20.830Z,95202.84
2022-11-13T01:15:47.566Z,95195.09
2022-11-13T01:18:14.297Z,95186.34
2022-11-13T01:20:41.377Z,95200.09
2022-11-13T01:23:08.156Z,95207.00
2022-11-13T01:25:34.835Z,95202.44
2022-11-13T01:28:01.517Z,95199.50
2022-11-13T01:30:28.184Z,95213.06
2022-11-13T01:32:54.896Z,95198.94
2022-11-13T01:35:21.536Z,95207.50
2022-11-13T01:37:48.238Z,95203.72
2022-11-13T01:40:15.056Z,95205.09
2022-11-13T01:42:41.747Z,95205.63
2022-11-13T01:45:45.524Z,95200.78
2022-11-13T01:48:12.835Z,95190.25
2022-11-13T01:50:39.749Z,95188.38
2022-11-13T01:53:06.877Z,95203.50
2022-11-13T01:55:33.614Z,95201.47
2022-11-13T01:58:00.911Z,95188.41
2022-11-13T02:00:27.677Z,95183.53
2022-11-13T02:02:54.437Z,95186.25
2022-11-13T02:05:21.095Z,95183.97
2022-11-13T02:07:47.778Z,95191.91
2022-11-13T02:10:14.505Z,95189.75
2022-11-13T02:12:43.515Z,95193.03
2022-11-13T02:15:10.664Z,95190.72
2022-11-13T02:17:47.466Z,95189.38
2022-11-13T02:20:14.634Z,95179.28
2022-11-13T02:23:00.110Z,95188.31
2022-11-13T02:25:28.073Z,95192.47
2022-11-13T02:27:54.837Z,95193.03
2022-11-13T02:30:27.741Z,95184.63
2022-11-13T02:32:56.299Z,95169.72
2022-11-13T02:35:36.959Z,95166.06
2022-11-13T02:38:05.860Z,95182.91
2022-11-13T02:40:34.195Z,95185.47
2022-11-13T02:43:01.172Z,95184.41
2022-11-13T02:45:27.904Z,95181.03
2022-11-13T02:47:54.661Z,95195.31
2022-11-13T02:50:21.378Z,95188.84
2022-11-13T02:52:48.235Z,95184.41
2022-11-13T02:55:15.004Z,95195.72
2022-11-13T02:57:41.695Z,95187.38
2022-11-13T03:00:13.508Z,95184.16
2022-11-13T03:02:40.906Z,95176.88
2022-11-13T03:05:13.357Z,95186.03
2022-11-13T03:07:41.127Z,95177.94
2022-11-13T03:10:08.796Z,95171.88
2022-11-13T03:12:35.473Z,95166.47
2022-11-13T03:15:02.464Z,95153.16
2022-11-13T03:17:31.359Z,95162.03
2022-11-13T03:19:58.074Z,95163.13
2022-11-13T03:22:24.727Z,95161.09
2022-11-13T03:24:51.466Z,95154.34
2022-11-13T03:27:18.296Z,95158.56
2022-11-13T03:29:44.996Z,95165.84
2022-11-13T03:32:11.695Z,95154.53
2022-11-13T03:34:39.336Z,95156.53
2022-11-13T03:37:06.105Z,95149.41
2022-11-13T03:39:32.775Z,95161.25
2022-11-13T03:41:59.463Z,95152.78
2022-11-13T03:44:26.176Z,95155.59
2022-11-13T03:46:52.923Z,95158.84
2022-11-13T03:49:19.676Z,95147.78
2022-11-13T03:51:46.783Z,95155.09
2022-11-13T03:54:13.463Z,95141.88
2022-11-13T03:56:40.196Z,95152.09
2022-11-13T03:59:06.936Z,95143.50
2022-11-13T04:01:33.830Z,95140.13
2022-11-13T04:04:00.607Z,95135.69
2022-11-13T04:06:27.295Z,95134.34
2022-11-13T04:08:54.195Z,95135.44
2022-11-13T04:11:20.913Z,95137.31
2022-11-13T04:13:47.655Z,95127.88
2022-11-13T04:16:14.376Z,95106.88
2022-11-13T04:18:41.055Z,95114.00
2022-11-13T04:21:07.763Z,95108.09
2022-11-13T04:23:34.489Z,95098.81
2022-11-13T04:26:01.325Z,95100.94
2022-11-13T04:28:28.264Z,95098.69
2022-11-13T04:30:55.706Z,95103.66
2022-11-13T04:33:22.734Z,95092.59
2022-11-13T04:35:49.736Z,95078.22
2022-11-13T04:38:16.534Z,95079.69
2022-11-13T04:40:43.685Z,95072.16
2022-11-13T04:43:10.427Z,95068.41
2022-11-13T04:45:37.364Z,95052.94
2022-11-13T04:48:04.243Z,95053.88
2022-11-13T04:50:31.420Z,95046.91
2022-11-13T04:52:58.124Z,95043.13
2022-11-13T04:55:24.756Z,95031.81
2022-11-13T04:57:55.596Z,95021.47
2022-11-13T05:00:22.864Z,95018.13
2022-11-13T05:02:49.567Z,95015.28
2022-11-13T05:05:16.703Z,95022.81
2022-11-13T05:07:43.388Z,95029.69
2022-11-13T05:10:10.372Z,95049.06
2022-11-13T05:12:37.117Z,95062.78
2022-11-13T05:15:04.494Z,95060.88
2022-11-13T05:17:31.254Z,95068.56
2022-11-13T05:19:57.905Z,95071.66
2022-11-13T05:22:24.528Z,95066.00
2022-11-13T05:24:51.173Z,95054.56
2022-11-13T05:27:18.064Z,95048.22
2022-11-13T05:29:45.016Z,95045.00
2022-11-13T05:32:11.804Z,95039.34
2022-11-13T05:34:38.408Z,95026.19
2022-11-13T05:37:04.978Z,95029.69
2022-11-13T05:39:31.553Z,95031.81
2022-11-13T05:41:58.188Z,95026.34
2022-11-13T05:44:24.769Z,95022.53
2022-11-13T05:46:51.420Z,95026.31
2022-11-13T05:49:18.170Z,95029.53
2022-11-13T05:51:44.890Z,95014.22
2022-11-13T05:54:11.486Z,95005.88
2022-11-13T05:56:38.366Z,95004.91
2022-11-13T05:59:05.334Z,95013.78
2022-11-13T06:01:39.135Z,95016.75
2022-11-13T06:04:07.155Z,95019.97
2022-11-13T06:06:34.494Z,95032.22
2022-11-13T06:09:03.295Z,95027.25
2022-11-13T06:11:30.733Z,95042.84
2022-11-13T06:13:58.390Z,95028.63
2022-11-13T06:16:30.481Z,95037.50
2022-11-13T06:18:59.445Z,95028.06
2022-11-13T06:21:29.935Z,95014.88
2022-11-13T06:23:58.342Z,95008.53
2022-11-13T06:26:27.943Z,95013.78
2022-11-13T06:28:54.652Z,95019.19
2022-11-13T06:31:23.626Z,95015.16
2022-11-13T06:33:50.254Z,95026.59
2022-11-13T06:36:22.113Z,95032.38
2022-11-13T06:38:49.160Z,95044.47
2022-11-13T06:41:17.307Z,95036.66
2022-11-13T06:43:44.498Z,95050.66
2022-11-13T06:46:19.343Z,95045.81
2022-11-13T06:48:46.389Z,95052.53
2022-11-13T06:51:28.511Z,95045.00
2022-11-13T06:53:55.224Z,95043.41
2022-11-13T06:56:22.118Z,95050.13
2022-11-13T06:58:49.058Z,95055.38
2022-11-13T07:01:17.929Z,95059.00
2022-11-13T07:03:45.004Z,95051.19
2022-11-13T07:06:17.662Z,95057.13
2022-11-13T07:08:45.038Z,95044.97
2022-11-13T07:11:14.602Z,95039.72
2022-11-13T07:13:41.718Z,95035.38
2022-11-13T07:16:16.879Z,95046.25
2022-11-13T07:18:43.892Z,95054.09
2022-11-13T07:21:12.134Z,95048.56
2022-11-13T07:23:43.629Z,95038.03
2022-11-13T07:26:13.803Z,95051.94
2022-11-13T07:28:40.463Z,95046.28
2022-11-13T07:31:07.611Z,95046.56
2022-11-13T07:33:34.546Z,95038.56
2022-11-13T07:36:01.305Z,95052.94
2022-11-13T07:38:28.473Z,95049.38
2022-11-13T07:40:58.068Z,95035.13
2022-11-13T07:43:24.842Z,95042.34
2022-11-13T07:45:54.860Z,95049.63
2022-11-13T07:48:24.865Z,95045.41
2022-11-13T07:50:51.595Z,95024.69
2022-11-13T07:53:18.967Z,95023.84
2022-11-13T07:55:45.705Z,95001.63
2022-11-13T07:58:12.976Z,94996.88
2022-11-13T08:00:40.006Z,95004.41
2022-11-13T08:03:08.443Z,95042.19
2022-11-13T08:05:35.316Z,95036.88
2022-11-13T08:08:02.327Z,95038.38
2022-11-13T08:10:29.436Z,95040.28
2022-11-13T08:13:01.051Z,95037.66
2022-11-13T08:15:29.166Z,95041.41
2022-11-13T08:18:00.689Z,95021.16
2022-11-13T08:20:29.207Z,95026.69
2022-11-13T08:23:00.696Z,95025.16
2022-11-13T08:25:28.886Z,95032.56
2022-11-13T08:27:55.885Z,95018.81
2022-11-13T08:30:24.399Z,95022.09
2022-11-13T08:32:51.778Z,95021.78
2022-11-13T08:35:20.707Z,94995.47
2022-11-13T08:37:48.765Z,94998.66
2022-11-13T08:40:15.817Z,95002.91
2022-11-13T08:42:42.438Z,95015.38
2022-11-13T08:45:10.047Z,95015.94
2022-11-13T08:47:37.120Z,95018.41
2022-11-13T08:50:05.256Z,95010.44
2022-11-13T08:52:32.137Z,95021.25
2022-11-13T08:54:58.832Z,95023.88
2022-11-13T08:57:25.555Z,95027.66
2022-11-13T08:59:52.216Z,95023.69
2022-11-13T09:02:18.995Z,95040.16
2022-11-13T09:04:45.657Z,95042.63
2022-11-13T09:07:12.493Z,95033.84
2022-11-13T09:09:39.285Z,95027.50
2022-11-13T09:12:06.247Z,95025.13
2022-11-13T09:14:32.956Z,95025.84
2022-11-13T09:16:59.707Z,95028.78
2022-11-13T09:19:27.706Z,95019.97
2022-11-13T09:21:54.451Z,95036.13
2022-11-13T09:24:21.155Z,95032.13
2022-11-13T09:26:47.906Z,95027.41
2022-11-13T09:29:14.607Z,95018.00
2022-11-13T09:31:41.518Z,95027.38
2022-11-13T09:34:08.947Z,95026.06
2022-11-13T09:36:36.331Z,95021.91
2022-11-13T09:39:04.767Z,95028.00
2022-11-13T09:42:02.876Z,95012.47
2022-11-13T09:44:46.474Z,95009.91
2022-11-13T09:47:21.425Z,95021.19
2022-11-13T09:50:24.374Z,95025.28
2022-11-13T09:52:52.206Z,95021.06
2022-11-13T09:55:21.180Z,95033.41
2022-11-13T09:57:51.919Z,95018.25
2022-11-13T10:00:20.664Z,95019.78
2022-11-13T10:02:56.516Z,95011.69
2022-11-13T10:05:42.747Z,95007.09
2022-11-13T10:08:44.335Z,95012.25
2022-11-13T10:11:35.854Z,95025.81
2022-11-13T10:14:17.360Z,95012.44
2022-11-13T10:16:59.754Z,95017.31
2022-11-13T10:19:26.376Z,95003.03
2022-11-13T10:22:26.529Z,95001.34
2022-11-13T10:24:52.400Z,94994.56
2022-11-13T10:27:19.199Z,95001.09
2022-11-13T10:29:49.174Z,94997.63
2022-11-13T10:32:24.777Z,94986.88
2022-11-13T10:34:59.813Z,94980.94
2022-11-13T10:37:41.774Z,94971.69
2022-11-13T10:40:08.835Z,94956.69
2022-11-13T10:42:41.015Z,94943.97
2022-11-13T10:45:20.036Z,94950.66
2022-11-13T10:48:03.711Z,94943.31
2022-11-13T10:50:32.483Z,94922.56
2022-11-13T10:52:59.472Z,94924.78
2022-11-13T10:55:38.766Z,94912.44
2022-11-13T10:58:16.479Z,94912.69
2022-11-13T11:00:44.974Z,94913.50
2022-11-13T11:03:23.008Z,94904.44
2022-11-13T11:06:00.246Z,94898.88
2022-11-13T11:08:35.319Z,94900.19
2022-11-13T11:11:32.177Z,94890.06
2022-11-13T11:14:38.644Z,94882.69
2022-11-13T11:17:05.940Z,94868.25
2022-11-13T11:19:37.363Z,94864.06
2022-11-13T11:22:13.247Z,94849.97
2022-11-13T11:24:49.516Z,94862.31
2022-11-13T11:27:25.607Z,94865.63
2022-11-13T11:30:02.556Z,94864.41
2022-11-13T11:32:46.697Z,94867.81
2022-11-13T11:35:17.957Z,94863.94
2022-11-13T11:37:54.615Z,94847.88
2022-11-13T11:40:31.029Z,94851.50
2022-11-13T11:43:27.637Z,94859.91
2022-11-13T11:45:54.400Z,94849.97
2022-11-13T11:48:28.166Z,94855.16
2022-11-13T11:51:07.303Z,94850.88
2022-11-13T11:53:50.808Z,94847.81
2022-11-13T11:56:46.838Z,94833.75
2022-11-13T11:59:31.388Z,94827.25
2022-11-13T12:02:30.785Z,94819.63
2022-11-13T12:05:24.079Z,94817.47
2022-11-13T12:08:11.176Z,94815.41
2022-11-13T12:10:56.803Z,94811.97
2022-11-13T12:13:28.448Z,94818.19
2022-11-13T12:16:14.977Z,94799.41
2022-11-13T12:19:12.456Z,94805.13
2022-11-13T12:22:04.184Z,94790.53
2022-11-13T12:24:42.948Z,94790.84
2022-11-13T12:27:33.334Z,94788.19
2022-11-13T12:30:13.238Z,94790.88
2022-11-13T12:33:02.898Z,94786.66
2022-11-13T12:35:29.994Z,94778.34
2022-11-13T12:38:06.278Z,94779.91
2022-11-13T12:41:05.074Z,94769.09
2022-11-13T12:43:37.944Z,94767.59
2022-11-13T12:46:09.650Z,94764.88
2022-11-13T12:48:44.650Z,94759.81
2022-11-13T12:51:14.590Z,94755.59
2022-11-13T12:53:48.388Z,94760.38
2022-11-13T12:56:23.865Z,94768.78
2022-11-13T13:02:31.231Z,94774.50
2022-11-13T13:05:11.011Z,94774.19
2022-11-13T13:07:55.674Z,94769.28
2022-11-13T13:10:53.235Z,94768.97
2022-11-13T13:13:47.376Z,94771.22
2022-11-13T13:16:22.225Z,94774.28
2022-11-13T13:18:48.971Z,94773.28
2022-11-13T13:21:18.009Z,94771.06
2022-11-13T13:23:49.345Z,94770.06
2022-11-13T13:26:27.920Z,94775.69
2022-11-13T13:28:56.435Z,94763.97
2022-11-13T13:31:41.337Z,94771.44
2022-11-13T13:34:16.853Z,94773.50
2022-11-13T13:37:03.749Z,94762.25
2022-11-13T13:40:15.601Z,94755.56
2022-11-13T13:43:20.798Z,94747.97
2022-11-13T13:45:53.295Z,94751.44
2022-11-13T13:48:22.022Z,94741.59
2022-11-13T13:50:49.792Z,94764.13
2022-11-13T13:53:19.798Z,94764.41
2022-11-13T13:55:53.117Z,94746.31
2022-11-13T13:58:25.556Z,94751.88
2022-11-13T14:01:20.352Z,94762.66
2022-11-13T14:03:47.211Z,94758.66
2022-11-13T14:06:24.065Z,94759.25
2022-11-13T14:08:50.868Z,94765.84
2022-11-13T14:11:29.836Z,94750.69
2022-11-13T14:14:08.024Z,94749.69
2022-11-13T14:16:34.786Z,94753.69
2022-11-13T14:19:05.526Z,94736.75
2022-11-13T14:21:32.587Z,94730.81
2022-11-13T14:24:01.604Z,94743.59
2022-11-13T14:26:29.384Z,94742.94
2022-11-13T14:29:01.217Z,94747.72
2022-11-13T14:31:32.557Z,94756.44
2022-11-13T14:34:10.000Z,94760.84
2022-11-13T14:36:37.325Z,94771.91
2022-11-13T14:39:04.434Z,94766.44
2022-11-13T14:41:41.104Z,94769.19
2022-11-13T14:44:10.995Z,94767.88
2022-11-13T14:46:40.196Z,94763.13
2022-11-13T14:49:28.045Z,94771.00
2022-11-13T14:51:56.097Z,94770.97
2022-11-13T14:55:00.199Z,94769.41
2022-11-13T14:57:20.889Z,94754.69
2022-11-13T14:59:47.524Z,94759.88
2022-11-13T15:02:14.375Z,94745.63
2022-11-13T15:04:41.084Z,94745.63
2022-11-13T15:07:41.116Z,94744.22
2022-11-13T15:10:15.558Z,94742.03
2022-11-13T15:12:43.535Z,94744.63
2022-11-13T15:15:19.187Z,94738.44
2022-11-13T15:17:47.276Z,94731.03
2022-11-13T15:20:27.735Z,94739.22
2022-11-13T15:22:54.917Z,94736.41
2022-11-13T15:25:23.115Z,94733.59
2022-11-13T15:27:50.031Z,94740.56
2022-11-13T15:30:17.215Z,94713.66
2022-11-13T15:32:44.543Z,94730.94
2022-11-13T15:35:17.576Z,94730.56
2022-11-13T15:37:45.439Z,94722.09
2022-11-13T15:40:13.746Z,94730.81
2022-11-13T15:42:41.029Z,94723.00
2022-11-13T15:45:14.137Z,94729.41
2022-11-13T15:47:41.416Z,94727.66
2022-11-13T15:50:16.398Z,94730.88
2022-11-13T15:52:46.617Z,94721.56
2022-11-13T15:55:32.386Z,94724.34
2022-11-13T15:57:59.566Z,94732.19
2022-11-13T16:00:28.237Z,94744.63
2022-11-13T16:02:56.544Z,94734.78
2022-11-13T16:05:25.685Z,94745.00
2022-11-13T16:07:53.898Z,94750.34
2022-11-13T16:10:21.991Z,94745.13
2022-11-13T16:12:48.841Z,94732.19
2022-11-13T16:15:19.816Z,94742.13
2022-11-13T16:17:49.935Z,94748.94
2022-11-13T16:20:17.955Z,94739.03
2022-11-13T16:22:45.268Z,94738.31
2022-11-13T16:25:14.725Z,94737.81
2022-11-13T16:27:41.765Z,94734.88
2022-11-13T16:30:26.648Z,94740.91
2022-11-13T16:32:53.249Z,94740.56
2022-11-13T16:35:20.688Z,94730.66
2022-11-13T16:37:47.397Z,94739.66
2022-11-13T16:40:23.616Z,94739.56
2022-11-13T16:42:50.505Z,94738.31
2022-11-13T16:45:17.587Z,94736.59
2022-11-13T16:47:44.577Z,94740.19
2022-11-13T16:50:24.088Z,94729.38
2022-11-13T16:52:51.151Z,94725.34
2022-11-13T16:55:17.886Z,94725.69
2022-11-13T16:57:44.785Z,94717.59
2022-11-13T17:00:14.583Z,94736.03
2022-11-13T17:02:41.390Z,94722.75
2022-11-13T17:05:12.549Z,94736.34
2022-11-13T17:07:39.265Z,94739.28
2022-11-13T17:12:54.051Z,94721.91
2022-11-13T17:15:21.484Z,94737.59
2022-11-13T17:17:48.378Z,94738.75
2022-11-13T17:20:18.345Z,94736.50
2022-11-13T17:22:48.611Z,94732.25
2022-11-13T17:25:20.733Z,94729.13
2022-11-13T17:27:47.534Z,94735.25
2022-11-13T17:30:14.673Z,94741.16
2022-11-13T17:32:41.492Z,94738.75
2022-11-13T17:35:09.278Z,94742.78
2022-11-13T17:37:35.964Z,94742.22
2022-11-13T17:40:02.545Z,94735.00
2022-11-13T17:42:29.252Z,94738.25
2022-11-13T17:44:56.021Z,94747.78
2022-11-13T17:47:22.727Z,94755.22
2022-11-13T17:49:49.520Z,94744.38
2022-11-13T17:52:16.302Z,94756.22
2022-11-13T17:54:43.084Z,94746.88
2022-11-13T17:57:10.483Z,94749.63
2022-11-13T17:59:37.133Z,94738.69
2022-11-13T18:02:04.133Z,94746.06
2022-11-13T18:04:30.876Z,94743.28
2022-11-13T18:06:58.169Z,94736.78
2022-11-13T18:09:24.818Z,94733.09
2022-11-13T18:11:51.594Z,94730.06
2022-11-13T18:14:19.083Z,94736.00
2022-11-13T18:16:45.888Z,94722.84
2022-11-13T18:19:13.276Z,94729.38
2022-11-13T18:21:40.719Z,94720.34
2022-11-13T18:24:14.608Z,94728.88
2022-11-13T18:26:41.603Z,94712.31
2022-11-13T18:29:08.747Z,94718.03
2022-11-13T18:31:35.588Z,94724.44
2022-11-13T18:34:04.315Z,94733.94
2022-11-13T18:36:35.066Z,94732.19
2022-11-13T18:39:03.252Z,94730.69
2022-11-13T18:41:30.846Z,94722.28
2022-11-13T18:43:57.622Z,94708.50
2022-11-13T18:46:24.454Z,94726.44
2022-11-13T18:48:51.615Z,94719.75
2022-11-13T18:51:24.370Z,94721.00
2022-11-13T18:53:52.124Z,94721.59
2022-11-13T18:56:27.970Z,94722.50
2022-11-13T18:58:56.087Z,94712.44
2022-11-13T19:01:29.578Z,94712.31
2022-11-13T19:04:21.751Z,94708.31
2022-11-13T19:06:46.493Z,94716.47
2022-11-13T19:09:15.523Z,94714.75
2022-11-13T19:11:43.008Z,94723.47
2022-11-13T19:14:11.237Z,94720.88
2022-11-13T19:16:38.811Z,94703.09
2022-11-13T19:19:08.097Z,94700.56
2022-11-13T19:21:36.227Z,94707.19
2022-11-13T19:24:03.429Z,94702.63
2022-11-13T19:26:30.450Z,94708.56
2022-11-13T19:28:57.448Z,94708.13
2022-11-13T19:31:26.255Z,94704.63
2022-11-13T19:34:04.014Z,94701.41
2022-11-13T19:36:32.033Z,94698.44
2022-11-13T19:38:59.215Z,94693.34
2022-11-13T19:41:27.621Z,94697.59
2022-11-13T19:43:54.938Z,94696.22
2022-11-13T19:46:22.126Z,94682.81
2022-11-13T19:48:49.577Z,94683.84
2022-11-13T19:51:22.972Z,94684.63
2022-11-13T19:53:54.015Z,94674.69
2022-11-13T19:56:22.332Z,94678.16
2022-11-13T19:58:50.699Z,94688.38
2022-11-13T20:01:20.363Z,94694.56
2022-11-13T20:03:47.025Z,94688.22
2022-11-13T20:06:17.978Z,94678.69
2022-11-13T20:08:45.298Z,94670.09
2022-11-13T20:11:15.071Z,94664.97
2022-11-13T20:13:42.672Z,94680.38
2022-11-13T20:16:11.937Z,94679.47
2022-11-13T20:18:38.838Z,94677.34
2022-11-13T20:21:05.901Z,94672.81
2022-11-13T20:23:32.915Z,94686.50
2022-11-13T20:26:01.930Z,94681.94
2022-11-13T20:28:30.249Z,94670.19
2022-11-13T20:31:30.068Z,94674.53
2022-11-13T20:33:57.390Z,94664.38
2022-11-13T20:36:24.718Z,94674.41
2022-11-13T20:38:53.341Z,94676.19
2022-11-13T20:41:24.135Z,94672.69
2022-11-13T20:43:51.953Z,94680.56
2022-11-13T20:46:20.718Z,94680.63
2022-11-13T20:48:47.835Z,94667.44
2022-11-13T20:51:22.653Z,94650.66
2022-11-13T20:53:49.619Z,94660.09
2022-11-13T20:56:17.292Z,94652.38
2022-11-13T20:58:44.046Z,94661.69
2022-11-13T21:01:15.716Z,94667.31
2022-11-13T21:03:44.457Z,94655.69
2022-11-13T21:06:12.916Z,94669.88
2022-11-13T21:08:39.600Z,94658.16
2022-11-13T21:11:07.635Z,94660.00
2022-11-13T21:13:34.904Z,94658.03
2022-11-13T21:16:06.238Z,94665.53
2022-11-13T21:18:32.916Z,94667.28
2022-11-13T21:21:10.366Z,94666.06
2022-11-13T21:23:37.398Z,94672.44
2022-11-13T21:26:06.143Z,94661.06
2022-11-13T21:28:33.971Z,94658.78
2022-11-13T21:31:06.054Z,94666.22
2022-11-13T21:33:37.250Z,94662.50
2022-11-13T21:36:12.621Z,94662.06
2022-11-13T21:38:40.177Z,94651.13
2022-11-13T21:41:26.892Z,94645.44
2022-11-13T21:43:58.597Z,94654.75
2022-11-13T21:46:32.930Z,94654.34
2022-11-13T21:49:02.530Z,94648.66
2022-11-13T21:51:30.286Z,94647.03
2022-11-13T21:53:57.299Z,94638.66
2022-11-13T21:56:25.067Z,94640.56
2022-11-13T21:58:51.663Z,94632.16
2022-11-13T22:01:18.731Z,94648.34
2022-11-13T22:03:45.363Z,94651.91
2022-11-13T22:06:16.526Z,94642.16
2022-11-13T22:08:44.528Z,94638.00
2022-11-13T22:11:11.870Z,94634.50
2022-11-13T22:13:38.560Z,94644.81
2022-11-13T22:16:07.269Z,94639.47
2022-11-13T22:18:34.363Z,94625.78
2022-11-13T22:21:06.068Z,94639.03
2022-11-13T22:23:33.463Z,94634.38
2022-11-13T22:26:05.507Z,94642.41
2022-11-13T22:28:33.510Z,94646.03
2022-11-13T22:31:00.550Z,94635.63
2022-11-13T22:33:31.253Z,94625.66
2022-11-13T22:36:10.514Z,94630.31
2022-11-13T22:38:37.815Z,94631.84
2022-11-13T22:41:06.155Z,94621.06
2022-11-13T22:43:38.066Z,94625.88
2022-11-13T22:46:06.885Z,94611.47
2022-11-13T22:48:35.110Z,94622.00
2022-11-13T22:51:29.328Z,94603.72
2022-11-13T22:54:01.031Z,94601.59
2022-11-13T22:56:30.199Z,94603.63
2022-11-13T22:58:58.819Z,94607.09
2022-11-13T23:01:30.560Z,94599.47
2022-11-13T23:03:58.467Z,94609.09
2022-11-13T23:06:27.016Z,94607.78
2022-11-13T23:08:54.091Z,94610.00
2022-11-13T23:11:23.139Z,94607.06
2022-11-13T23:13:51.881Z,94609.19
2022-11-13T23:16:19.466Z,94621.34
2022-11-13T23:18:46.961Z,94606.06
2022-11-13T23:21:14.415Z,94601.38
2022-11-13T23:23:41.652Z,94593.38
2022-11-13T23:26:09.488Z,94598.06
2022-11-13T23:28:36.986Z,94592.91
2022-11-13T23:31:05.511Z,94596.78
2022-11-13T23:33:32.422Z,94593.03
2022-11-13T23:35:59.528Z,94595.50
2022-11-13T23:38:26.162Z,94593.03
2022-11-13T23:40:54.686Z,94589.19
2022-11-13T23:43:21.824Z,94593.59
2022-11-13T23:45:48.470Z,94592.19
2022-11-13T23:48:15.314Z,94584.34
2022-11-13T23:50:41.895Z,94574.47
2022-11-13T23:53:08.889Z,94583.56
2022-11-13T23:55:38.220Z,94583.19
2022-11-13T23:58:06.965Z,94572.53
